Crestone, Colorado
Current Conditions -  °F | °C
As of 4:13 AM on Sunday 23 Nov 2014 (Local Time) from K04V Reporting Station
Light Snow Light Snow  
Wind Chill: 18°   Ceiling: 1500
Heat Index: 30°   Visibility: 2mi
Dew Point: 28°   Wind: 18mph
Humidity: 93%   Direction: 330°NNW
Pressure: 29.73"   Gusts: 32mph
Location:  38°N, 105.7°W
Report Text: K04V 231113Z AUTO 33016G28KT 2SM -SN SCT004 BKN015 OVC025 M01/M02 A2973 RMK AO2
Loading
Personal Weather Stations






























Interactive Weather Map New forecast layout! Learn more

10-Day Weather Forecast

Advertisements
Track Severe Weather on mobile